Time;durP1;ratioP1;P1;durP2;ratioP2;P2;SDS_P1;SDS_P2;PMS_P1;PMS_P2;Temp;Humidity;BMP_temperature;BMP_pressure;BME280_temperature;BME280_humidity;BME280_pressure;Samples;Min_cycle;Max_cycle;Signal;HPM_P1;HPM_P2
2023/10/23 00:01:19;;;;;;;24.15;8.57;;;;;;;19.26;56.18;94733.25;4195164;28;20044;-71
2023/10/23 00:03:21;;;;;;;28.25;8.48;;;;;;;19.26;56.32;94737.75;4193078;28;20055;-71
2023/10/23 00:05:23;;;;;;;35.33;9.43;;;;;;;19.25;56.21;94739.56;4209832;28;20417;-71
2023/10/23 00:07:26;;;;;;;29.52;9.00;;;;;;;19.22;56.41;94735.50;4194551;28;20428;-70
2023/10/23 00:09:28;;;;;;;28.45;9.70;;;;;;;19.20;56.45;94732.25;4195325;28;20057;-70
2023/10/23 00:11:31;;;;;;;31.08;8.43;;;;;;;19.20;56.41;94742.88;4208738;28;20048;-70
2023/10/23 00:13:33;;;;;;;23.92;8.57;;;;;;;19.18;56.44;94738.78;4211246;28;20048;-72
2023/10/23 00:15:35;;;;;;;35.35;9.82;;;;;;;19.16;56.50;94740.84;4196040;28;20419;-71
2023/10/23 00:17:36;;;;;;;26.65;8.20;;;;;;;19.12;56.66;94734.31;4194676;28;20092;-73
2023/10/23 00:19:39;;;;;;;31.38;8.23;;;;;;;19.03;56.95;94736.41;4210391;28;20066;-71
2023/10/23 00:21:45;;;;;;;26.48;8.43;;;;;;;18.98;56.93;94733.56;4189493;28;20157;-70
2023/10/23 00:23:47;;;;;;;28.10;8.93;;;;;;;18.96;57.02;94738.28;4211221;28;20479;-72
2023/10/23 00:25:50;;;;;;;;;;;;;;;18.97;57.11;94740.72;4214724;28;20074;-73
2023/10/23 00:27:52;;;;;;;28.08;8.88;;;;;;;18.96;57.38;94736.44;4195589;28;20392;-73
2023/10/23 00:29:54;;;;;;;32.33;8.80;;;;;;;18.99;57.11;94741.34;4204038;28;20070;-72
2023/10/23 00:31:56;;;;;;;27.80;9.68;;;;;;;18.97;57.07;94740.72;4213025;28;20060;-72
2023/10/23 00:33:58;;;;;;;22.55;7.95;;;;;;;18.99;57.11;94743.16;4213237;28;20411;-73
2023/10/23 00:36:00;;;;;;;26.63;8.63;;;;;;;19.00;56.97;94734.19;4212754;28;20480;-70
2023/10/23 00:38:03;;;;;;;23.90;9.20;;;;;;;18.99;57.17;94743.16;4206841;28;20059;-73
2023/10/23 00:40:05;;;;;;;31.60;9.10;;;;;;;18.98;57.28;94733.56;4212822;28;20055;-72
2023/10/23 00:42:08;;;;;;;25.50;8.90;;;;;;;18.92;57.39;94726.44;4179658;28;20045;-70
2023/10/23 00:44:10;;;;;;;27.67;8.95;;;;;;;18.91;57.41;94727.47;4212454;28;20048;-71
2023/10/23 00:46:19;;;;;;;29.13;9.30;;;;;;;18.89;57.50;94737.50;4213307;28;20052;-70
2023/10/23 00:48:22;;;;;;;32.35;8.68;;;;;;;18.86;57.55;94736.06;4189097;28;20123;-71
2023/10/23 00:50:24;;;;;;;32.47;8.65;;;;;;;18.81;57.87;94733.22;4206739;28;20044;-71
2023/10/23 00:52:26;;;;;;;32.20;9.45;;;;;;;18.74;58.01;94733.22;4193205;28;20163;-70
2023/10/23 00:54:29;;;;;;;30.73;8.53;;;;;;;18.72;58.04;94735.25;4191093;28;20110;-70
2023/10/23 00:56:32;;;;;;;29.13;9.00;;;;;;;18.74;58.19;94735.88;4212210;28;20117;-71
2023/10/23 00:58:41;;;;;;;29.88;9.95;;;;;;;18.76;57.85;94733.81;4210459;28;20047;-72
2023/10/23 01:00:44;;;;;;;28.50;8.13;;;;;;;18.77;57.99;94732.78;4210617;28;20044;-71
2023/10/23 01:02:46;;;;;;;33.00;9.48;;;;;;;18.79;57.95;94730.75;4212048;28;20407;-69
2023/10/23 01:04:50;;;;;;;31.55;8.70;;;;;;;18.81;57.87;94728.72;4209583;28;20140;-71
2023/10/23 01:06:52;;;;;;;26.55;9.10;;;;;;;18.83;57.66;94731.16;4208860;28;20117;-70
2023/10/23 01:08:54;;;;;;;25.55;8.88;;;;;;;18.83;57.69;94728.53;4202765;28;20053;-70
2023/10/23 01:10:56;;;;;;;31.13;9.07;;;;;;;18.82;57.82;94719.75;4211966;28;20059;-71
2023/10/23 01:12:59;;;;;;;29.38;8.95;;;;;;;18.80;57.79;94731.59;4201162;28;20130;-71
2023/10/23 01:15:00;;;;;;;26.65;8.45;;;;;;;18.78;57.99;94731.81;4210985;28;20052;-70
2023/10/23 01:17:03;;;;;;;35.65;8.63;;;;;;;18.81;57.93;94734.03;4212725;28;20039;-69
2023/10/23 01:19:05;;;;;;;29.33;9.30;;;;;;;18.71;58.16;94723.00;4188714;28;20068;-71
2023/10/23 01:21:07;;;;;;;27.92;8.85;;;;;;;18.63;58.43;94725.91;4193972;28;20063;-72
2023/10/23 01:23:09;;;;;;;27.10;9.70;;;;;;;18.58;58.55;94725.69;4211094;28;20048;-70
2023/10/23 01:25:16;;;;;;;26.85;8.98;;;;;;;18.48;58.78;94723.47;4212979;28;20075;-70
2023/10/23 01:27:17;;;;;;;26.08;8.93;;;;;;;18.46;59.02;94722.06;4206672;28;20114;-71
2023/10/23 01:29:19;;;;;;;28.25;9.65;;;;;;;18.50;58.85;94715.28;4193417;28;20091;-71
2023/10/23 01:31:21;;;;;;;31.27;8.95;;;;;;;18.51;59.11;94716.94;4208576;28;20631;-70
2023/10/23 01:33:24;;;;;;;26.42;8.45;;;;;;;18.59;58.75;94727.34;4211414;28;20122;-70
2023/10/23 01:35:26;;;;;;;30.58;8.55;;;;;;;18.63;58.62;94725.91;4208790;28;20048;-72
2023/10/23 01:37:28;;;;;;;32.05;8.52;;;;;;;18.64;58.70;94716.91;4194069;28;20055;-71
2023/10/23 01:39:30;;;;;;;26.02;8.38;;;;;;;18.64;58.67;94716.91;4194515;28;20044;-70
2023/10/23 01:41:34;;;;;;;24.50;8.10;;;;;;;18.67;58.59;94718.31;4210716;28;20044;-70
2023/10/23 01:43:36;;;;;;;34.60;8.77;;;;;;;18.71;58.63;94724.84;4210828;28;20491;-71
2023/10/23 01:45:39;;;;;;;30.50;8.93;;;;;;;18.75;58.11;94723.41;4203558;28;20051;-70
2023/10/23 01:47:41;;;;;;;32.70;9.27;;;;;;;18.76;58.49;94731.16;4197552;28;20048;-70
2023/10/23 01:49:43;;;;;;;31.88;8.80;;;;;;;18.73;58.60;94736.88;4209664;28;20408;-71
2023/10/23 01:51:47;;;;;;;31.60;8.40;;;;;;;18.75;58.54;94729.53;4197804;28;20050;-69
2023/10/23 01:53:49;;;;;;;38.22;8.88;;;;;;;18.77;58.83;94742.59;4210610;28;20085;-71
2023/10/23 01:55:51;;;;;;;25.60;8.48;;;;;;;18.68;59.08;94734.03;4212596;28;20055;-71
2023/10/23 01:57:58;;;;;;;28.38;8.20;;;;;;;18.65;59.21;94733.63;4210509;28;20130;-70
2023/10/23 02:00:06;;;;;;;34.85;9.20;;;;;;;18.63;59.25;94728.56;4210144;28;20510;-71
2023/10/23 02:02:08;;;;;;;24.27;8.40;;;;;;;18.65;59.28;94728.31;4210623;28;20135;-70
2023/10/23 02:04:10;;;;;;;27.45;8.20;;;;;;;18.69;59.22;94730.38;4209157;28;20098;-69
2023/10/23 02:06:13;;;;;;;34.95;9.73;;;;;;;18.70;59.07;94724.03;4178545;28;20102;-70
2023/10/23 02:08:16;;;;;;;30.60;8.60;;;;;;;18.74;59.01;94733.22;4215002;28;20052;-71
2023/10/23 02:10:18;;;;;;;33.90;8.85;;;;;;;18.71;59.04;94730.16;4215183;28;20618;-73
2023/10/23 02:12:21;;;;;;;24.52;8.15;;;;;;;18.66;59.30;94740.59;4215346;28;20506;-71
2023/10/23 02:14:23;;;;;;;30.08;9.00;;;;;;;18.61;59.49;94733.25;4213865;28;20464;-71
2023/10/23 02:16:25;;;;;;;33.50;8.82;;;;;;;18.62;59.37;94725.06;4197794;28;20051;-70
2023/10/23 02:18:27;;;;;;;28.55;8.23;;;;;;;18.61;59.62;94733.25;4207461;28;20071;-68
2023/10/23 02:20:29;;;;;;;31.02;9.60;;;;;;;18.62;59.57;94721.59;4215791;28;20416;-71
2023/10/23 02:22:32;;;;;;;24.15;8.40;;;;;;;18.63;59.48;94729.38;4214585;28;20048;-69
2023/10/23 02:24:35;;;;;;;32.25;9.15;;;;;;;18.64;59.19;94730.16;4204999;28;20123;-72
2023/10/23 02:26:38;;;;;;;23.52;8.55;;;;;;;18.63;59.30;94733.88;4211138;28;20090;-69
2023/10/23 02:28:40;;;;;;;30.30;9.63;;;;;;;18.61;59.53;94730.59;4187970;28;20051;-69
2023/10/23 02:30:42;;;;;;;34.10;10.18;;;;;;;18.60;59.64;94726.31;4211692;28;20036;-70
2023/10/23 02:32:45;;;;;;;34.92;9.93;;;;;;;18.59;59.66;94736.09;4214188;28;20513;-70
2023/10/23 02:34:48;;;;;;;31.00;9.30;;;;;;;18.61;59.40;94738.56;4197282;28;20538;-71
2023/10/23 02:36:50;;;;;;;37.28;9.82;;;;;;;18.62;59.38;94730.38;4197877;28;20044;-71
2023/10/23 02:38:52;;;;;;;22.70;8.70;;;;;;;18.63;59.49;94723.25;4197327;28;20412;-71
2023/10/23 02:40:54;;;;;;;31.05;9.23;;;;;;;18.62;59.59;94732.22;4215086;28;20056;-71
2023/10/23 02:42:56;;;;;;;25.48;8.38;;;;;;;18.58;59.53;94731.00;4214610;28;20052;-70
2023/10/23 02:44:59;;;;;;;31.67;8.65;;;;;;;18.54;59.76;94732.44;4214378;28;20048;-70
2023/10/23 02:47:00;;;;;;;30.20;8.50;;;;;;;18.54;59.95;94727.97;4214378;28;20048;-70
2023/10/23 02:49:03;;;;;;;30.27;8.77;;;;;;;18.54;59.54;94732.44;4215628;28;20056;-72
2023/10/23 02:51:05;;;;;;;31.08;8.45;;;;;;;18.54;59.72;94727.97;4215204;28;20389;-69
2023/10/23 02:53:07;;;;;;;29.50;9.15;;;;;;;18.55;59.81;94734.09;4180483;28;20084;-73
2023/10/23 02:55:11;;;;;;;37.83;9.70;;;;;;;18.54;59.95;94732.44;4214985;28;20408;-72
2023/10/23 02:57:13;;;;;;;29.70;9.68;;;;;;;18.50;60.07;94733.88;4214121;28;20482;-70
2023/10/23 02:59:15;;;;;;;26.80;9.15;;;;;;;18.49;60.11;94737.56;4212336;28;20055;-72
2023/10/23 03:01:20;;;;;;;31.35;9.23;;;;;;;18.47;60.07;94734.28;4196520;28;20443;-71
2023/10/23 03:03:22;;;;;;;31.17;10.35;;;;;;;18.48;60.37;94741.25;4197531;28;20471;-71
2023/10/23 03:05:24;;;;;;;28.77;8.60;;;;;;;18.47;60.30;94743.06;4205094;28;20562;-69
2023/10/23 03:07:26;;;;;;;27.25;9.52;;;;;;;18.49;59.95;94738.38;4196529;28;20048;-70
2023/10/23 03:09:29;;;;;;;22.77;8.00;;;;;;;18.51;59.96;94730.22;4213525;28;20475;-73
2023/10/23 03:11:31;;;;;;;34.50;10.00;;;;;;;18.50;60.22;94741.81;4215126;28;20048;-72
2023/10/23 03:13:33;;;;;;;29.42;8.95;;;;;;;18.47;60.14;94734.28;4187963;28;20110;-73
2023/10/23 03:15:40;;;;;;;37.22;8.52;;;;;;;18.42;59.97;94741.03;4208588;28;20048;-70
2023/10/23 03:17:42;;;;;;;27.52;9.55;;;;;;;18.41;60.39;94743.88;4213253;28;20101;-69
2023/10/23 03:19:44;;;;;;;23.33;8.52;;;;;;;18.39;60.22;94746.75;4207845;28;20120;-69
2023/10/23 03:21:46;;;;;;;32.40;10.23;;;;;;;18.39;60.28;94752.06;4212619;28;20058;-71
2023/10/23 03:23:48;;;;;;;28.48;9.02;;;;;;;18.42;60.41;94740.22;4204082;28;20109;-69
2023/10/23 03:25:50;;;;;;;27.40;9.88;;;;;;;18.34;60.82;94745.75;4212922;28;20051;-73
2023/10/23 03:27:52;;;;;;;32.38;9.85;;;;;;;18.26;61.07;94738.00;4207450;28;20040;-70
2023/10/23 03:29:54;;;;;;;32.42;10.18;;;;;;;18.23;61.15;94743.72;4194142;28;20091;-73
2023/10/23 03:31:58;;;;;;;34.30;9.38;;;;;;;18.23;61.23;94743.72;4213872;28;20054;-72
2023/10/23 03:34:00;;;;;;;32.03;11.75;;;;;;;18.19;61.33;94745.94;4214444;28;20048;-69
2023/10/23 03:36:03;;;;;;;25.77;10.43;;;;;;;18.21;61.37;94750.03;4213999;28;20044;-70
2023/10/23 03:38:04;;;;;;;28.80;10.00;;;;;;;18.26;61.10;94743.28;4209601;28;20178;-71
2023/10/23 03:40:09;;;;;;;29.45;9.45;;;;;;;18.30;61.12;94742.66;4195116;28;20051;-72
2023/10/23 03:42:11;;;;;;;34.97;9.82;;;;;;;18.33;61.17;94744.13;4213871;28;20067;-71
2023/10/23 03:44:13;;;;;;;31.48;9.30;;;;;;;18.36;61.06;94743.69;4212620;28;20052;-70
2023/10/23 03:46:15;;;;;;;25.50;9.07;;;;;;;18.37;60.89;94735.53;4189322;28;20176;-72
2023/10/23 03:48:17;;;;;;;26.58;9.45;;;;;;;18.37;61.14;94738.19;4195899;28;20337;-71
2023/10/23 03:50:19;;;;;;;36.65;11.75;;;;;;;18.38;60.74;94745.13;4214375;28;20090;-72
2023/10/23 03:52:21;;;;;;;33.45;9.70;;;;;;;18.38;60.80;94747.75;4196114;28;20126;-72
2023/10/23 03:54:23;;;;;;;33.22;10.35;;;;;;;18.37;60.87;94738.19;4213897;28;20504;-71
2023/10/23 03:56:25;;;;;;;28.48;9.95;;;;;;;18.38;60.94;94746.97;4195871;28;20045;-71
2023/10/23 03:58:27;;;;;;;31.98;10.25;;;;;;;18.35;60.87;94744.72;4204984;28;20086;-71
2023/10/23 04:00:29;;;;;;;37.78;10.93;;;;;;;18.25;61.54;94747.78;4211979;28;20044;-72
2023/10/23 04:02:31;;;;;;;34.25;10.63;;;;;;;18.10;61.79;94745.34;4179349;28;20108;-70
2023/10/23 04:04:33;;;;;;;37.28;10.65;;;;;;;18.08;62.28;94739.44;4214698;28;20496;-73
2023/10/23 04:06:38;;;;;;;40.58;9.95;;;;;;;18.12;62.09;94739.84;4213103;28;20094;-72
2023/10/23 04:08:40;;;;;;;32.05;11.35;;;;;;;18.09;62.09;94740.25;4207520;28;20052;-72
2023/10/23 04:10:47;;;;;;;26.63;10.57;;;;;;;18.04;62.09;94743.50;4214305;28;20511;-72
2023/10/23 04:12:49;;;;;;;46.40;10.88;;;;;;;18.06;62.00;94741.47;4207540;28;20055;-74
2023/10/23 04:14:51;;;;;;;45.42;11.30;;;;;;;18.12;62.09;94740.66;4169668;28;20045;-73
2023/10/23 04:16:54;;;;;;;36.63;10.55;;;;;;;18.08;61.91;94741.28;4214341;28;20059;-70
2023/10/23 04:18:56;;;;;;;36.42;10.40;;;;;;;17.85;62.81;94742.47;4195580;28;20074;-72
2023/10/23 04:21:17;;;;;;;25.65;10.07;;;;;;;17.83;63.09;94749.81;4195530;28;20045;-73
2023/10/23 04:23:19;;;;;;;35.90;10.80;;;;;;;17.83;62.98;94749.00;4211319;28;20075;-71
2023/10/23 04:25:22;;;;;;;28.73;10.82;;;;;;;17.82;63.08;94748.19;4213705;28;20051;-69
2023/10/23 04:27:24;;;;;;;35.07;10.47;;;;;;;17.78;63.27;94750.38;4194877;28;20041;-72
2023/10/23 04:29:26;;;;;;;47.30;10.77;;;;;;;17.55;63.97;94750.78;4203351;28;20315;-72
2023/10/23 04:31:28;;;;;;;30.95;10.95;;;;;;;17.34;64.76;94759.69;4211392;28;20060;-71
2023/10/23 04:33:30;;;;;;;38.75;11.48;;;;;;;17.39;64.89;94757.25;4212374;28;20489;-72
2023/10/23 04:35:32;;;;;;;36.28;10.20;;;;;;;17.49;64.62;94767.47;4212007;28;20465;-70
2023/10/23 04:37:34;;;;;;;35.13;10.98;;;;;;;17.56;64.57;94759.53;4208835;28;20056;-70
2023/10/23 04:39:36;;;;;;;33.22;10.40;;;;;;;17.47;64.97;94764.22;4184724;28;20045;-75
2023/10/23 04:41:39;;;;;;;35.80;11.60;;;;;;;17.43;65.36;94768.25;4196490;28;20045;-72
2023/10/23 04:43:41;;;;;;;38.33;11.52;;;;;;;17.40;65.48;94769.50;4209221;28;20052;-71
2023/10/23 04:45:43;;;;;;;33.90;11.05;;;;;;;17.46;65.44;94765.19;4210927;28;20109;-71
2023/10/23 04:47:45;;;;;;;34.08;10.88;;;;;;;17.46;65.49;94761.75;4195928;28;20327;-73
2023/10/23 04:49:47;;;;;;;33.63;11.43;;;;;;;17.33;65.85;94763.34;4213448;28;20040;-72
2023/10/23 04:51:49;;;;;;;41.20;10.10;;;;;;;17.28;65.88;94762.31;4209725;28;20408;-71
2023/10/23 04:53:52;;;;;;;36.95;11.65;;;;;;;17.35;66.17;94763.16;4212931;28;20079;-71
2023/10/23 04:55:54;;;;;;;37.40;11.43;;;;;;;17.48;65.64;94762.38;4193333;28;20053;-73
2023/10/23 04:57:56;;;;;;;34.00;11.00;;;;;;;17.55;65.26;94760.53;4206761;28;20056;-73
2023/10/23 04:59:59;;;;;;;34.53;11.70;;;;;;;17.60;65.00;94761.56;4210946;28;20048;-73
2023/10/23 05:02:04;;;;;;;31.35;10.35;;;;;;;17.57;64.81;94769.94;4217095;28;20492;-70
2023/10/23 05:04:06;;;;;;;39.92;11.25;;;;;;;17.54;65.24;94764.22;4213406;28;20497;-72
2023/10/23 05:06:08;;;;;;;32.65;11.60;;;;;;;17.58;65.07;94768.09;4208993;28;20622;-73
2023/10/23 05:08:09;;;;;;;40.08;10.95;;;;;;;17.66;64.73;94769.72;4213018;28;20052;-74
2023/10/23 05:10:12;;;;;;;35.10;10.55;;;;;;;17.73;64.26;94773.22;4175539;28;20091;-73
2023/10/23 05:12:14;;;;;;;35.63;11.68;;;;;;;17.76;64.25;94772.81;4183011;28;20061;-74
2023/10/23 05:14:16;;;;;;;29.00;10.30;;;;;;;17.67;64.20;94774.84;4191953;28;20044;-71
2023/10/23 05:16:17;;;;;;;36.15;12.25;;;;;;;17.66;64.02;94777.69;4213786;28;20044;-73
2023/10/23 05:18:22;;;;;;;25.35;10.20;;;;;;;17.65;64.16;94781.34;4213172;28;20128;-74
2023/10/23 05:20:27;;;;;;;28.23;10.80;;;;;;;17.61;64.18;94784.38;4194815;28;20560;-74
2023/10/23 05:22:28;;;;;;;33.13;10.27;;;;;;;17.31;65.08;94788.38;4210669;28;20045;-72
2023/10/23 05:24:32;;;;;;;40.95;12.23;;;;;;;17.32;65.27;94793.50;4209575;28;20531;-72
2023/10/23 05:26:34;;;;;;;28.35;10.15;;;;;;;17.39;65.38;94798.81;4206067;28;20114;-72
2023/10/23 05:28:40;;;;;;;31.75;10.95;;;;;;;17.52;65.03;94809.44;4207051;28;20040;-74
2023/10/23 05:30:42;;;;;;;39.58;10.35;;;;;;;17.64;64.61;94799.09;4195127;28;20109;-73
2023/10/23 05:32:43;;;;;;;34.08;9.95;;;;;;;17.71;64.24;94799.09;4200905;28;20500;-73
2023/10/23 05:34:46;;;;;;;32.90;10.20;;;;;;;17.79;64.07;94796.28;4208388;28;20047;-74
2023/10/23 05:36:48;;;;;;;37.90;10.67;;;;;;;17.79;64.14;94789.13;4205215;28;20404;-73
2023/10/23 05:38:51;;;;;;;36.17;10.57;;;;;;;17.77;64.12;94791.16;4202797;28;20565;-73
2023/10/23 05:40:57;;;;;;;35.50;10.88;;;;;;;17.78;64.21;94791.97;4212051;28;20040;-72
2023/10/23 05:43:00;;;;;;;35.05;9.90;;;;;;;17.78;64.17;94795.44;4194601;28;20075;-72
2023/10/23 05:45:03;;;;;;;26.40;8.75;;;;;;;17.73;64.25;94805.03;4211474;28;20454;-72
2023/10/23 05:47:06;;;;;;;29.58;10.65;;;;;;;17.71;64.36;94794.63;4212613;28;20131;-71
2023/10/23 05:49:08;;;;;;;43.40;11.27;;;;;;;17.74;64.61;94796.03;4208422;28;20079;-73
2023/10/23 05:51:09;;;;;;;29.77;10.48;;;;;;;17.79;64.79;94793.63;4212759;28;20276;-72
2023/10/23 05:53:11;;;;;;;25.77;9.10;;;;;;;17.87;64.27;94801.38;4210949;28;20106;-72
2023/10/23 05:55:13;;;;;;;33.67;9.88;;;;;;;17.99;64.02;94797.13;4193064;28;20052;-72
2023/10/23 05:57:15;;;;;;;36.28;10.77;;;;;;;18.07;63.70;94805.91;4184289;28;20070;-73
2023/10/23 05:59:17;;;;;;;29.77;10.43;;;;;;;18.15;63.54;94811.00;4189281;28;20059;-73
2023/10/23 06:01:19;;;;;;;34.90;9.45;;;;;;;18.19;62.78;94812.22;4197651;28;20044;-72
2023/10/23 06:03:21;;;;;;;33.30;10.38;;;;;;;18.25;63.33;94813.28;4188419;28;20082;-73
2023/10/23 06:05:24;;;;;;;34.45;10.15;;;;;;;18.24;63.07;94809.81;4192265;28;20090;-74
2023/10/23 06:07:29;;;;;;;34.45;10.60;;;;;;;18.18;63.26;94808.78;4194917;28;20052;-74
2023/10/23 06:09:32;;;;;;;37.13;11.02;;;;;;;18.16;63.16;94815.31;4210345;28;20423;-73
2023/10/23 06:11:34;;;;;;;31.27;9.95;;;;;;;18.19;63.22;94820.19;4206363;28;20047;-71
2023/10/23 06:13:36;;;;;;;31.92;9.68;;;;;;;18.13;63.29;94813.88;4205704;28;20044;-73
2023/10/23 06:15:39;;;;;;;35.05;9.85;;;;;;;17.87;64.29;94812.00;4205816;28;20131;-71
2023/10/23 06:17:41;;;;;;;40.83;10.32;;;;;;;17.74;64.68;94812.75;4209372;28;20083;-74
2023/10/23 06:19:43;;;;;;;32.70;11.38;;;;;;;17.72;65.08;94817.44;4200051;28;20052;-73
2023/10/23 06:21:45;;;;;;;29.13;11.02;;;;;;;17.75;64.69;94819.69;4209874;28;20417;-73
2023/10/23 06:23:47;;;;;;;34.03;10.82;;;;;;;17.77;64.89;94827.44;4212379;28;20050;-72
2023/10/23 06:25:55;;;;;;;42.85;12.10;;;;;;;17.87;64.59;94837.69;4194747;28;20489;-74
2023/10/23 06:27:57;;;;;;;36.97;12.05;;;;;;;17.95;64.28;94840.16;4182871;28;20052;-73
2023/10/23 06:29:59;;;;;;;41.67;10.80;;;;;;;18.06;63.85;94833.44;4206163;28;20052;-72
2023/10/23 06:32:02;;;;;;;31.40;9.82;;;;;;;18.13;63.81;94836.91;4205119;28;20500;-72
2023/10/23 06:34:05;;;;;;;37.03;11.55;;;;;;;18.21;63.35;94836.72;4209699;28;20476;-72
2023/10/23 06:36:09;;;;;;;35.72;10.90;;;;;;;18.25;63.34;94835.28;4211475;28;20048;-74
2023/10/23 06:38:11;;;;;;;;;;;;;;;18.34;62.89;94839.38;4214431;28;20048;-74
2023/10/23 06:40:15;;;;;;;38.50;11.52;;;;;;;18.36;62.75;94839.97;4212505;28;19930;-73
2023/10/23 06:42:17;;;;;;;40.65;12.50;;;;;;;18.32;63.04;94836.09;4211873;28;20520;-72
2023/10/23 06:44:19;;;;;;;50.15;14.95;;;;;;;18.28;63.12;94837.53;4209107;28;20044;-73
2023/10/23 06:46:22;;;;;;;35.13;12.90;;;;;;;18.30;63.35;94838.13;4211024;28;20052;-73
2023/10/23 06:48:24;;;;;;;40.30;13.35;;;;;;;18.35;62.99;94838.34;4212448;28;20389;-74
2023/10/23 06:50:26;;;;;;;42.67;16.13;;;;;;;18.42;63.01;94841.00;4211149;28;20055;-73
2023/10/23 06:52:28;;;;;;;42.55;14.68;;;;;;;18.51;62.80;94849.59;4211648;28;20044;-71
2023/10/23 06:54:30;;;;;;;38.15;12.85;;;;;;;18.58;62.63;94856.53;4205029;28;20507;-75
2023/10/23 06:56:32;;;;;;;43.50;13.98;;;;;;;18.59;62.38;94849.38;4212608;28;20105;-72
2023/10/23 06:58:34;;;;;;;47.63;14.63;;;;;;;18.64;62.08;94854.88;4194393;28;20053;-75
2023/10/23 07:00:35;;;;;;;44.33;12.80;;;;;;;18.46;62.66;94860.81;4195213;28;20046;-73
2023/10/23 07:02:37;;;;;;;52.88;14.20;;;;;;;18.29;63.47;94855.09;4180526;28;20437;-73
2023/10/23 07:04:40;;;;;;;46.88;13.07;;;;;;;18.40;63.41;94858.97;4213718;28;20078;-71
2023/10/23 07:06:41;;;;;;;40.33;12.80;;;;;;;18.55;63.04;94851.63;4196546;28;20448;-73
2023/10/23 07:08:43;;;;;;;40.95;13.35;;;;;;;18.66;62.33;94855.50;4214050;28;20087;-73
2023/10/23 07:10:45;;;;;;;37.63;13.50;;;;;;;18.54;62.52;94859.78;4215231;28;20032;-73
2023/10/23 07:12:49;;;;;;;40.40;13.90;;;;;;;18.51;62.72;94861.00;4191616;28;20045;-74
2023/10/23 07:14:51;;;;;;;42.05;12.45;;;;;;;18.48;62.97;94853.47;4213361;28;20506;-73
2023/10/23 07:16:55;;;;;;;38.55;16.73;;;;;;;18.30;62.84;94848.75;4215566;28;20521;-71
2023/10/23 07:18:57;;;;;;;45.17;16.08;;;;;;;18.35;63.00;94854.28;4180157;28;20104;-74
2023/10/23 07:21:01;;;;;;;39.25;15.63;;;;;;;18.48;62.62;94850.81;4212127;28;20488;-74
2023/10/23 07:23:05;;;;;;;36.97;16.08;;;;;;;18.60;62.72;94851.00;4204185;28;20048;-74
2023/10/23 07:25:07;;;;;;;43.45;17.13;;;;;;;18.78;62.09;94853.06;4211532;28;20064;-74
2023/10/23 07:27:14;;;;;;;35.37;13.30;;;;;;;18.86;61.58;94858.16;4213243;28;20052;-73
2023/10/23 07:29:17;;;;;;;33.97;10.73;;;;;;;18.63;61.81;94862.03;4203713;28;20049;-74
2023/10/23 07:31:19;;;;;;;42.22;11.07;;;;;;;18.52;62.25;94862.66;4194308;28;20048;-74
2023/10/23 07:33:21;;;;;;;30.60;10.52;;;;;;;18.48;62.60;94860.63;4190335;28;20131;-74
2023/10/23 07:35:23;;;;;;;33.55;12.52;;;;;;;18.38;62.90;94856.50;4197589;28;20672;-75
2023/10/23 07:37:27;;;;;;;38.85;11.63;;;;;;;18.49;62.65;94857.72;4212192;28;20123;-73
2023/10/23 07:39:29;;;;;;;38.97;11.63;;;;;;;18.43;62.72;94861.19;4204750;28;20163;-74
2023/10/23 07:41:33;;;;;;;39.97;12.05;;;;;;;18.23;63.32;94853.25;4214916;28;20051;-75
2023/10/23 07:43:35;;;;;;;43.83;15.27;;;;;;;18.10;63.80;94854.03;4195063;28;20059;-74
2023/10/23 07:45:41;;;;;;;40.58;12.75;;;;;;;18.05;64.07;94847.69;4212616;28;20052;-73
2023/10/23 07:47:43;;;;;;;36.83;13.95;;;;;;;18.13;64.16;94847.50;4205040;28;20123;-72
2023/10/23 07:49:45;;;;;;;45.78;13.90;;;;;;;18.29;63.79;94847.13;4209677;28;20098;-74
2023/10/23 07:51:47;;;;;;;51.05;13.63;;;;;;;18.54;63.15;94844.69;4213550;28;20466;-74
2023/10/23 07:53:50;;;;;;;43.85;16.42;;;;;;;18.69;62.49;94849.78;4212531;28;20056;-73
2023/10/23 07:55:53;;;;;;;39.88;14.52;;;;;;;18.75;62.11;94843.63;4200663;28;20463;-74
2023/10/23 07:57:55;;;;;;;59.38;15.13;;;;;;;18.64;62.37;94846.91;4210385;28;20415;-72
2023/10/23 07:59:57;;;;;;;38.15;12.45;;;;;;;18.64;62.57;94846.91;4213479;28;20573;-73
2023/10/23 08:01:59;;;;;;;39.30;11.70;;;;;;;18.70;62.32;94843.44;4213676;28;20047;-75
2023/10/23 08:04:01;;;;;;;37.50;12.82;;;;;;;18.83;62.17;94848.75;4196054;28;20089;-74
2023/10/23 08:06:04;;;;;;;37.88;12.93;;;;;;;18.99;61.83;94841.38;4208325;28;20048;-74
2023/10/23 08:08:06;;;;;;;41.10;11.50;;;;;;;19.17;61.37;94854.81;4208397;28;20052;-74
2023/10/23 08:10:09;;;;;;;29.45;9.80;;;;;;;19.08;61.03;94856.09;4214022;28;20135;-74
2023/10/23 08:12:11;;;;;;;38.70;11.23;;;;;;;18.95;61.51;94856.94;4211612;28;21103;-73
2023/10/23 08:14:15;;;;;;;;;;;;;;;18.99;61.54;94854.66;4204188;28;20273;-72
2023/10/23 08:16:17;;;;;;;43.83;11.15;;;;;;;19.15;61.15;94848.09;4214301;28;19927;-73
2023/10/23 08:18:19;;;;;;;31.52;11.15;;;;;;;19.30;60.70;94851.31;4195923;28;20056;-71
2023/10/23 08:20:38;;;;;;;33.47;10.05;;;;;;;19.29;60.59;94851.53;4210623;28;20048;-72
2023/10/23 08:22:40;;;;;;;37.05;10.95;;;;;;;19.36;60.56;94844.34;4212359;28;20078;-74
2023/10/23 08:24:42;;;;;;;30.63;10.50;;;;;;;19.47;60.10;94849.00;4207131;28;20040;-73
2023/10/23 08:26:44;;;;;;;36.05;9.75;;;;;;;19.68;59.88;94844.41;4195443;28;20048;-71
2023/10/23 08:28:46;;;;;;;33.17;10.32;;;;;;;19.86;59.50;94855.19;4208951;28;20054;-74
2023/10/23 08:30:51;;;;;;;46.60;10.90;;;;;;;20.01;58.84;94853.06;4210681;28;20055;-72
2023/10/23 08:32:53;;;;;;;35.70;10.70;;;;;;;20.09;58.25;94852.00;4214096;28;20506;-73
2023/10/23 08:34:55;;;;;;;35.97;10.85;;;;;;;20.19;57.96;94847.00;4194605;28;20056;-74
2023/10/23 08:36:59;;;;;;;37.05;11.35;;;;;;;20.24;57.58;94846.34;4198134;28;20424;-73
2023/10/23 08:39:01;;;;;;;44.33;13.00;;;;;;;20.16;57.85;94842.13;4210579;28;20044;-74
2023/10/23 08:41:04;;;;;;;27.60;11.43;;;;;;;20.13;57.81;94844.41;4186770;28;20048;-75
2023/10/23 08:43:06;;;;;;;29.55;11.18;;;;;;;20.27;57.58;94842.47;4196496;28;20481;-74
2023/10/23 08:45:09;;;;;;;39.10;12.73;;;;;;;20.42;56.84;94842.97;4194926;28;20136;-74
2023/10/23 08:47:10;;;;;;;38.25;12.50;;;;;;;20.19;56.85;94847.00;4211018;28;20497;-73
2023/10/23 08:49:12;;;;;;;37.25;12.85;;;;;;;19.98;57.44;94837.56;4208878;28;20544;-74
2023/10/23 08:51:18;;;;;;;38.92;13.23;;;;;;;20.17;57.35;94838.44;4197382;28;20160;-72
2023/10/23 08:53:22;;;;;;;42.72;13.15;;;;;;;20.47;56.87;94843.13;4211215;28;20048;-74
2023/10/23 08:55:26;;;;;;;34.58;12.05;;;;;;;20.74;56.15;94837.63;4209975;28;20052;-75
2023/10/23 08:57:29;;;;;;;48.60;13.02;;;;;;;20.77;55.47;94837.97;4197798;28;20052;-75
2023/10/23 08:59:31;;;;;;;32.50;12.40;;;;;;;20.62;55.77;94840.97;4193969;28;20135;-73
2023/10/23 09:01:34;;;;;;;34.90;13.00;;;;;;;20.75;55.77;94836.59;4212417;28;20150;-73
2023/10/23 09:03:38;;;;;;;41.85;13.32;;;;;;;20.99;55.51;94840.25;4195241;28;20044;-72
2023/10/23 09:06:00;;;;;;;35.92;13.15;;;;;;;21.02;54.85;94834.50;4192079;28;20464;-73
2023/10/23 09:08:02;;;;;;;41.88;12.45;;;;;;;21.23;54.61;94834.06;4210123;28;20044;-78
2023/10/23 09:10:04;;;;;;;38.75;12.77;;;;;;;21.50;54.46;94838.28;4210302;28;20492;-75
2023/10/23 09:12:06;;;;;;;28.67;12.00;;;;;;;21.75;53.75;94827.53;4194823;28;20048;-74
2023/10/23 09:14:09;;;;;;;33.78;11.43;;;;;;;21.84;52.68;94834.97;4208328;28;20044;-75
2023/10/23 09:16:12;;;;;;;40.28;13.07;;;;;;;21.70;53.05;94830.03;4189644;28;20045;-74
2023/10/23 09:18:16;;;;;;;41.13;13.43;;;;;;;21.66;53.10;94835.84;4195282;28;20052;-73
2023/10/23 09:20:24;;;;;;;39.80;13.43;;;;;;;21.73;53.17;94834.94;4195766;28;20496;-74
2023/10/23 09:22:29;;;;;;;37.40;13.18;;;;;;;21.70;52.75;94827.38;4188257;28;20055;-73
2023/10/23 09:24:31;;;;;;;32.55;11.45;;;;;;;21.69;52.82;94834.56;4206543;28;20044;-75
2023/10/23 09:26:33;;;;;;;44.90;12.63;;;;;;;21.69;53.06;94823.91;4212337;28;20042;-73
2023/10/23 09:28:35;;;;;;;33.97;12.18;;;;;;;21.80;52.62;94827.66;4211585;28;20119;-72